Time;durP1;ratioP1;P1;durP2;ratioP2;P2;SDS_P1;SDS_P2;PMS_P1;PMS_P2;Temp;Humidity;BMP_temperature;BMP_pressure;BME280_temperature;BME280_humidity;BME280_pressure;Samples;Min_cycle;Max_cycle;Signal;HPM_P1;HPM_P2
2023/12/04 00:00:25;;;;;;;1999.90;999.90;;;1.00;1.00;;;;;;4994422;28;20280;-70
2023/12/04 00:02:51;;;;;;;1999.90;999.90;;;1.00;1.00;;;;;;4994344;28;20166;-70
2023/12/04 00:05:17;;;;;;;1999.90;999.90;;;1.00;1.00;;;;;;4994482;28;20249;-70
2023/12/04 00:07:42;;;;;;;1999.90;999.90;;;1.00;99.90;;;;;;4994094;28;20200;-70
2023/12/04 00:10:08;;;;;;;1999.90;999.90;;;1.10;1.00;;;;;;4994437;28;20177;-70
2023/12/04 00:12:34;;;;;;;1999.90;999.90;;;1.10;1.00;;;;;;4994203;28;20213;-70
2023/12/04 00:14:59;;;;;;;1999.90;999.90;;;1.10;99.90;;;;;;4994242;28;20417;-70
2023/12/04 00:17:25;;;;;;;1999.90;999.90;;;1.00;99.90;;;;;;4994036;28;20244;-70
2023/12/04 00:19:51;;;;;;;1999.90;999.90;;;0.90;99.90;;;;;;4993089;28;20217;-70
2023/12/04 00:22:16;;;;;;;1999.90;999.90;;;0.90;99.90;;;;;;4994032;28;20173;-70
2023/12/04 00:24:42;;;;;;;1999.90;999.90;;;0.90;99.90;;;;;;4994041;28;20188;-70
2023/12/04 00:27:08;;;;;;;1999.90;999.90;;;0.80;1.00;;;;;;4993788;28;20223;-70
2023/12/04 00:29:33;;;;;;;1999.90;999.90;;;0.80;1.00;;;;;;4993830;28;20197;-70
2023/12/04 00:31:59;;;;;;;1999.90;999.90;;;0.80;99.90;;;;;;4993724;28;20170;-70
2023/12/04 00:34:24;;;;;;;1999.90;999.90;;;0.80;99.90;;;;;;4993906;28;20174;-70
2023/12/04 00:36:50;;;;;;;1999.90;999.90;;;0.80;99.90;;;;;;4993608;28;20174;-70
2023/12/04 00:39:16;;;;;;;1999.90;999.90;;;0.70;1.00;;;;;;4993632;28;20202;-70
2023/12/04 00:41:41;;;;;;;1999.90;999.90;;;0.80;1.00;;;;;;4993724;28;20230;-70
2023/12/04 00:44:07;;;;;;;1999.90;999.90;;;0.80;99.90;;;;;;4995281;28;20161;-70
2023/12/04 00:46:32;;;;;;;1999.90;999.90;;;0.80;99.90;;;;;;5012968;28;20251;-70
2023/12/04 00:48:58;;;;;;;1999.90;999.90;;;0.80;99.90;;;;;;5013107;28;20192;-70
2023/12/04 00:51:23;;;;;;;1999.90;999.90;;;0.80;99.90;;;;;;5013125;28;20165;-70
2023/12/04 00:53:49;;;;;;;1999.90;999.90;;;0.80;99.90;;;;;;5013070;28;20671;-70
2023/12/04 00:56:15;;;;;;;1999.90;999.90;;;0.80;99.90;;;;;;5013104;28;20161;-70
2023/12/04 00:58:40;;;;;;;1999.90;999.90;;;0.80;6.80;;;;;;5012648;28;20702;-70
2023/12/04 01:01:06;;;;;;;1999.90;999.90;;;0.80;53.00;;;;;;5012835;28;20276;-70
2023/12/04 01:03:33;;;;;;;1999.90;999.90;;;0.80;60.60;;;;;;5013033;28;20161;-70
2023/12/04 01:05:59;;;;;;;1999.90;999.90;;;0.80;1.00;;;;;;5012901;28;20711;-70
2023/12/04 01:08:24;;;;;;;1999.90;999.90;;;0.80;1.00;;;;;;5012694;28;20204;-70
2023/12/04 01:10:50;;;;;;;1999.90;999.90;;;0.90;1.00;;;;;;5012799;28;20185;-70
2023/12/04 01:13:16;;;;;;;1999.90;999.90;;;0.90;1.00;;;;;;5012712;28;20315;-70
2023/12/04 01:15:42;;;;;;;1999.90;999.90;;;0.90;99.90;;;;;;5012665;28;20180;-70
2023/12/04 01:18:08;;;;;;;1999.90;999.90;;;0.90;99.90;;;;;;5012366;28;20276;-70
2023/12/04 01:20:34;;;;;;;1999.90;999.90;;;0.90;99.90;;;;;;5012598;28;20217;-70
2023/12/04 01:22:59;;;;;;;1999.90;999.90;;;0.90;99.90;;;;;;5012644;28;20176;-70
2023/12/04 01:25:25;;;;;;;1999.90;999.90;;;1.00;1.00;;;;;;5012734;28;20596;-70
2023/12/04 01:27:51;;;;;;;1999.90;999.90;;;1.10;99.90;;;;;;5012242;28;20162;-70
2023/12/04 01:30:16;;;;;;;1999.90;999.90;;;1.00;1.00;;;;;;5012352;28;20181;-69
2023/12/04 01:32:42;;;;;;;1999.90;999.90;;;1.00;99.90;;;;;;5012422;28;20196;-70
2023/12/04 01:35:08;;;;;;;1999.90;999.90;;;1.00;99.90;;;;;;5012457;28;20227;-70
2023/12/04 01:37:34;;;;;;;1999.90;999.90;;;1.00;56.80;;;;;;5012135;28;20173;-69
2023/12/04 01:39:59;;;;;;;1999.90;999.90;;;1.00;4.10;;;;;;5012199;28;20201;-70
2023/12/04 01:42:25;;;;;;;1999.90;999.90;;;1.10;1.00;;;;;;5012245;28;20539;-70
2023/12/04 01:44:50;;;;;;;1999.90;999.90;;;1.00;1.00;;;;;;5012327;28;20169;-70
2023/12/04 01:47:17;;;;;;;1999.90;999.90;;;1.10;3.90;;;;;;5012084;28;20207;-70
2023/12/04 01:49:43;;;;;;;1999.90;999.90;;;1.10;12.50;;;;;;5012214;28;20251;-70
2023/12/04 01:52:09;;;;;;;1999.90;999.90;;;1.10;1.00;;;;;;5012171;28;20181;-70
2023/12/04 01:54:35;;;;;;;1999.90;999.90;;;1.10;1.00;;;;;;5012281;28;20491;-70
2023/12/04 01:57:02;;;;;;;1999.90;999.90;;;1.20;99.90;;;;;;5011920;28;20200;-70
2023/12/04 01:59:28;;;;;;;1999.90;999.90;;;1.10;1.00;;;;;;5011138;28;20204;-70
2023/12/04 02:01:54;;;;;;;1999.90;999.90;;;1.10;1.00;;;;;;5011271;28;20165;-69
2023/12/04 02:04:20;;;;;;;1999.90;999.90;;;1.10;99.90;;;;;;5011433;28;20303;-70
2023/12/04 02:06:46;;;;;;;1999.90;999.90;;;1.10;99.90;;;;;;5011049;28;20256;-70
2023/12/04 02:09:12;;;;;;;1999.90;999.90;;;1.00;99.90;;;;;;5011147;28;20430;-70
2023/12/04 02:11:38;;;;;;;1999.90;999.90;;;1.00;1.00;;;;;;5011227;28;20644;-70
2023/12/04 02:14:05;;;;;;;1999.90;999.90;;;0.90;99.90;;;;;;5011057;28;20407;-70
2023/12/04 02:16:34;;;;;;;1999.90;999.90;;;1.00;1.00;;;;;;5011367;28;20186;-70
2023/12/04 02:19:00;;;;;;;1999.90;999.90;;;1.00;99.90;;;;;;5010907;28;20195;-70
2023/12/04 02:21:25;;;;;;;1999.90;999.90;;;1.00;99.90;;;;;;5011055;28;20232;-70
2023/12/04 02:23:52;;;;;;;1999.90;999.90;;;1.00;1.00;;;;;;5010956;28;20253;-70
2023/12/04 02:26:23;;;;;;;1999.90;999.90;;;1.10;1.00;;;;;;5010935;28;20173;-70
2023/12/04 02:28:55;;;;;;;1999.90;999.90;;;1.00;1.00;;;;;;5010717;28;20193;-70
2023/12/04 02:31:23;;;;;;;1999.90;999.90;;;1.10;99.90;;;;;;5011106;28;20552;-70
2023/12/04 02:33:52;;;;;;;1999.90;999.90;;;1.10;99.90;;;;;;5010873;28;20205;-70
2023/12/04 02:36:20;;;;;;;1999.90;999.90;;;1.00;99.90;;;;;;5010951;28;20161;-70
2023/12/04 02:38:46;;;;;;;1999.90;999.90;;;1.00;99.90;;;;;;5010819;28;20668;-70
2023/12/04 02:41:12;;;;;;;1999.90;999.90;;;1.00;99.90;;;;;;5010733;28;20169;-70
2023/12/04 02:43:37;;;;;;;1999.90;999.90;;;1.00;99.90;;;;;;5013445;28;20415;-70
2023/12/04 02:46:03;;;;;;;1999.90;999.90;;;1.00;99.90;;;;;;5014213;28;20308;-70
2023/12/04 02:48:28;;;;;;;1999.90;999.90;;;1.00;99.90;;;;;;5014040;28;20196;-70
2023/12/04 02:50:54;;;;;;;1999.90;999.90;;;1.00;99.90;;;;;;5014129;28;20461;-70
2023/12/04 02:53:20;;;;;;;1999.90;999.90;;;1.00;99.90;;;;;;5014159;28;20683;-70
2023/12/04 02:55:45;;;;;;;1999.90;999.90;;;1.00;99.90;;;;;;5014069;28;20203;-70
2023/12/04 02:58:11;;;;;;;1999.90;999.90;;;1.00;99.90;;;;;;4975712;28;1110469;-70
2023/12/04 03:00:36;;;;;;;1999.90;999.90;;;1.00;99.90;;;;;;5015210;28;20211;-70
2023/12/04 03:03:02;;;;;;;1999.90;999.90;;;1.00;99.90;;;;;;5015263;28;20174;-70
2023/12/04 03:05:28;;;;;;;1999.90;999.90;;;1.00;1.00;;;;;;5015243;28;20173;-70
2023/12/04 03:07:53;;;;;;;1999.90;999.90;;;0.90;99.90;;;;;;5014805;28;20543;-70
2023/12/04 03:10:19;;;;;;;1999.90;999.90;;;0.90;1.00;;;;;;5015046;28;20189;-70
2023/12/04 03:12:44;;;;;;;1999.90;999.90;;;0.90;4.00;;;;;;5014955;28;20263;-70
2023/12/04 03:15:11;;;;;;;1999.90;999.90;;;0.90;75.20;;;;;;5014967;28;20172;-70
2023/12/04 03:17:37;;;;;;;1999.90;999.90;;;0.90;1.00;;;;;;5014831;28;20235;-70
2023/12/04 03:20:04;;;;;;;1999.90;999.90;;;0.90;1.00;;;;;;5014750;28;20208;-70
2023/12/04 03:22:30;;;;;;;1999.90;999.90;;;0.90;1.00;;;;;;5014812;28;20176;-70
2023/12/04 03:24:55;;;;;;;1999.90;999.90;;;0.90;1.00;;;;;;5014687;28;20176;-70
2023/12/04 03:27:21;;;;;;;1999.90;999.90;;;1.00;1.00;;;;;;5014566;28;20248;-70
2023/12/04 03:29:46;;;;;;;1999.90;999.90;;;0.90;1.00;;;;;;5014636;28;20696;-70
2023/12/04 03:32:12;;;;;;;1999.90;999.90;;;1.00;1.00;;;;;;5014605;28;20539;-70
2023/12/04 03:34:37;;;;;;;1999.90;999.90;;;1.00;1.00;;;;;;5014616;28;20180;-70
2023/12/04 03:37:03;;;;;;;1999.90;999.90;;;1.00;99.90;;;;;;5014391;28;20219;-70
2023/12/04 03:39:29;;;;;;;1999.90;999.90;;;1.00;99.90;;;;;;5014265;28;20627;-70
2023/12/04 03:41:54;;;;;;;1999.90;999.90;;;1.00;99.90;;;;;;5014458;28;20173;-70
2023/12/04 03:44:20;;;;;;;1999.90;999.90;;;1.00;99.90;;;;;;5014450;28;20192;-70
2023/12/04 03:46:45;;;;;;;1999.90;999.90;;;1.00;1.00;;;;;;5014161;28;20161;-70
2023/12/04 03:49:11;;;;;;;1999.90;999.90;;;1.00;1.00;;;;;;5014254;28;20537;-70
2023/12/04 03:51:37;;;;;;;1999.90;999.90;;;0.90;1.00;;;;;;5014196;28;20181;-70
2023/12/04 03:54:02;;;;;;;1999.90;999.90;;;0.90;1.00;;;;;;5014089;28;20400;-70
2023/12/04 03:56:28;;;;;;;1999.90;999.90;;;1.00;1.00;;;;;;5014192;28;20223;-70
2023/12/04 03:58:53;;;;;;;1999.90;999.90;;;0.90;1.00;;;;;;5013760;28;20615;-70
2023/12/04 04:01:19;;;;;;;1999.90;999.90;;;1.00;1.00;;;;;;5012912;28;20169;-70
2023/12/04 04:03:45;;;;;;;1999.90;999.90;;;0.90;99.90;;;;;;5014054;28;20169;-70
2023/12/04 04:06:11;;;;;;;1999.90;999.90;;;0.90;99.90;;;;;;5014022;28;20188;-70
2023/12/04 04:08:37;;;;;;;1999.90;999.90;;;0.90;99.90;;;;;;5013645;28;20189;-70
2023/12/04 04:11:02;;;;;;;1999.90;999.90;;;0.90;1.00;;;;;;5014532;28;20173;-69
2023/12/04 04:13:28;;;;;;;1999.90;999.90;;;0.90;1.00;;;;;;5014710;28;20645;-69
2023/12/04 04:15:54;;;;;;;1999.90;999.90;;;0.90;1.00;;;;;;5014449;28;20184;-70
2023/12/04 04:18:19;;;;;;;1999.90;999.90;;;0.90;1.00;;;;;;5013929;28;20200;-70
2023/12/04 04:20:45;;;;;;;1999.90;999.90;;;0.90;99.90;;;;;;5013901;28;20204;-70
2023/12/04 04:23:10;;;;;;;1999.90;999.90;;;0.90;1.00;;;;;;4995166;28;20185;-69
2023/12/04 04:25:36;;;;;;;1999.90;999.90;;;0.90;99.90;;;;;;4994513;28;20174;-69
2023/12/04 04:28:01;;;;;;;1999.90;999.90;;;0.90;99.90;;;;;;4994124;28;20248;-69
2023/12/04 04:30:27;;;;;;;1999.90;999.90;;;1.00;99.90;;;;;;4994087;28;20173;-69
2023/12/04 04:32:53;;;;;;;1999.90;999.90;;;0.80;99.90;;;;;;4994056;28;20180;-69
2023/12/04 04:35:18;;;;;;;1999.90;999.90;;;0.80;99.90;;;;;;4993934;28;20604;-70
2023/12/04 04:37:44;;;;;;;1999.90;999.90;;;0.60;1.00;;;;;;4993629;28;20541;-70
2023/12/04 04:40:10;;;;;;;1999.90;999.90;;;0.70;99.90;;;;;;4993836;28;20231;-69
2023/12/04 04:42:35;;;;;;;1999.90;999.90;;;0.70;99.90;;;;;;4994027;28;20170;-70
2023/12/04 04:45:01;;;;;;;1999.90;999.90;;;0.70;99.90;;;;;;4993830;28;20595;-70
2023/12/04 04:47:27;;;;;;;1999.90;999.90;;;0.70;99.90;;;;;;4993757;28;20172;-70
2023/12/04 04:49:53;;;;;;;1999.90;999.90;;;0.60;99.90;;;;;;4993863;28;20683;-69
2023/12/04 04:52:18;;;;;;;1999.90;999.90;;;0.60;99.90;;;;;;4993839;28;20397;-69
2023/12/04 04:54:44;;;;;;;1999.90;999.90;;;0.60;99.90;;;;;;4994080;28;20634;-70
2023/12/04 04:57:09;;;;;;;1999.90;999.90;;;0.60;99.90;;;;;;4993528;28;20645;-69
2023/12/04 04:59:35;;;;;;;1999.90;999.90;;;0.60;99.90;;;;;;4993569;28;20236;-70
2023/12/04 05:02:01;;;;;;;1999.90;999.90;;;0.70;99.90;;;;;;4993669;28;20170;-69
2023/12/04 05:04:26;;;;;;;1999.90;999.90;;;0.70;99.90;;;;;;4993489;28;20213;-70
2023/12/04 05:06:52;;;;;;;1999.90;999.90;;;0.70;99.90;;;;;;4992858;28;20176;-69
2023/12/04 05:09:17;;;;;;;1999.90;999.90;;;0.80;99.90;;;;;;4993197;28;20197;-70
2023/12/04 05:11:43;;;;;;;1999.90;999.90;;;0.80;99.90;;;;;;4993334;28;20192;-69
2023/12/04 05:14:08;;;;;;;1999.90;999.90;;;0.90;99.90;;;;;;4993289;28;20177;-70
2023/12/04 05:16:34;;;;;;;1999.90;999.90;;;0.40;99.90;;;;;;4988694;28;20174;-70
2023/12/04 05:18:59;;;;;;;1999.90;999.90;;;0.80;99.90;;;;;;4992953;28;20189;-70
2023/12/04 05:21:25;;;;;;;1999.90;999.90;;;0.80;99.90;;;;;;4993024;28;20595;-69
2023/12/04 05:23:50;;;;;;;1999.90;999.90;;;0.90;99.90;;;;;;4993074;28;20648;-70
2023/12/04 05:26:16;;;;;;;1999.90;999.90;;;0.90;99.90;;;;;;4993369;28;20174;-70
2023/12/04 05:28:42;;;;;;;1999.90;999.90;;;0.90;99.90;;;;;;4992838;28;20190;-70
2023/12/04 05:31:07;;;;;;;1999.90;999.90;;;0.90;99.90;;;;;;4993166;28;20277;-69
2023/12/04 05:33:33;;;;;;;1999.90;999.90;;;0.90;99.90;;;;;;4993049;28;20699;-70
2023/12/04 05:36:00;;;;;;;1999.90;999.90;;;0.90;99.90;;;;;;4993296;28;20173;-70
2023/12/04 05:38:25;;;;;;;1999.90;999.90;;;0.80;99.90;;;;;;4992870;28;20197;-70
2023/12/04 05:40:51;;;;;;;1999.90;999.90;;;0.80;99.90;;;;;;4992672;28;20206;-70
2023/12/04 05:43:17;;;;;;;1999.90;999.90;;;0.80;99.90;;;;;;4992834;28;20174;-70
2023/12/04 05:45:42;;;;;;;1999.90;999.90;;;0.90;78.60;;;;;;4992743;28;20544;-70
2023/12/04 05:48:08;;;;;;;1999.90;999.90;;;0.90;25.70;;;;;;4992419;28;20193;-70
2023/12/04 05:50:33;;;;;;;1999.90;999.90;;;1.00;34.90;;;;;;4992703;28;20185;-70
2023/12/04 05:52:59;;;;;;;1999.90;999.90;;;1.00;48.50;;;;;;4992462;28;20182;-70
2023/12/04 05:55:24;;;;;;;1999.90;999.90;;;1.10;1.00;;;;;;4992597;28;20567;-70
2023/12/04 05:57:50;;;;;;;1999.90;999.90;;;1.10;99.90;;;;;;4992189;28;20239;-70
2023/12/04 06:00:16;;;;;;;1999.90;999.90;;;1.10;1.00;;;;;;4992453;28;20556;-70
2023/12/04 06:02:42;;;;;;;1999.90;999.90;;;1.20;1.00;;;;;;4992481;28;20246;-70
2023/12/04 06:05:08;;;;;;;1999.90;999.90;;;1.20;1.00;;;;;;4992510;28;20185;-70
2023/12/04 06:07:34;;;;;;;1999.90;999.90;;;1.20;1.00;;;;;;4991158;28;20538;-70
2023/12/04 06:10:00;;;;;;;1999.90;999.90;;;1.20;1.00;;;;;;4992423;28;20665;-70
2023/12/04 06:12:26;;;;;;;1999.90;999.90;;;1.20;1.00;;;;;;4992378;28;20212;-70
2023/12/04 06:14:51;;;;;;;1999.90;999.90;;;1.30;99.90;;;;;;4992539;28;20946;-70
2023/12/04 06:17:17;;;;;;;1999.90;999.90;;;1.30;99.90;;;;;;4992985;28;20178;-70
2023/12/04 06:19:42;;;;;;;1999.90;999.90;;;1.30;99.90;;;;;;4996107;28;20209;-70
2023/12/04 06:22:08;;;;;;;1999.90;999.90;;;1.30;99.90;;;;;;4996128;28;20549;-70
2023/12/04 06:24:34;;;;;;;1999.90;999.90;;;1.20;99.90;;;;;;4996297;28;20166;-70
2023/12/04 06:27:00;;;;;;;1999.90;999.90;;;1.20;99.90;;;;;;4995995;28;20713;-70
2023/12/04 06:29:26;;;;;;;1999.90;999.90;;;1.20;99.90;;;;;;4996170;28;20424;-70
2023/12/04 06:31:52;;;;;;;1999.90;999.90;;;1.10;99.90;;;;;;4996056;28;20966;-69
2023/12/04 06:34:18;;;;;;;1999.90;999.90;;;1.20;99.90;;;;;;4996183;28;20520;-70
2023/12/04 06:36:44;;;;;;;1999.90;999.90;;;1.00;99.90;;;;;;4990744;28;20632;-70
2023/12/04 06:39:11;;;;;;;1999.90;999.90;;;1.10;99.90;;;;;;4992950;28;20440;-70
2023/12/04 06:41:38;;;;;;;1999.90;999.90;;;1.00;1.00;;;;;;4995997;28;20222;-69
2023/12/04 06:44:04;;;;;;;1999.90;999.90;;;1.10;1.00;;;;;;4995972;28;20165;-70
2023/12/04 06:46:31;;;;;;;1999.90;999.90;;;1.00;99.90;;;;;;4995972;28;20220;-70
2023/12/04 06:49:00;;;;;;;1999.90;999.90;;;1.00;99.90;;;;;;4995567;28;20439;-70
2023/12/04 06:51:25;;;;;;;1999.90;999.90;;;1.00;99.90;;;;;;4995923;28;20181;-70
2023/12/04 06:53:51;;;;;;;1999.90;999.90;;;1.00;1.00;;;;;;4995732;28;20173;-70
2023/12/04 06:56:16;;;;;;;1999.90;999.90;;;1.00;1.00;;;;;;4995839;28;20169;-70
2023/12/04 06:58:42;;;;;;;1999.90;999.90;;;0.90;1.00;;;;;;4995346;28;20205;-70
2023/12/04 07:01:07;;;;;;;1999.90;999.90;;;1.00;1.00;;;;;;4995566;28;20351;-70
2023/12/04 07:03:33;;;;;;;1999.90;999.90;;;1.00;1.00;;;;;;4995525;28;20172;-70
2023/12/04 07:05:58;;;;;;;1999.90;999.90;;;0.90;1.00;;;;;;4995779;28;20255;-70
2023/12/04 07:08:25;;;;;;;1999.90;999.90;;;0.90;43.60;;;;;;4995248;28;20181;-70
2023/12/04 07:10:50;;;;;;;1999.90;999.90;;;0.90;99.90;;;;;;4995442;28;20301;-70
2023/12/04 07:13:16;;;;;;;1999.90;999.90;;;0.90;99.90;;;;;;4995359;28;20664;-70
2023/12/04 07:15:41;;;;;;;1999.90;999.90;;;0.90;99.90;;;;;;4995411;28;20181;-70
2023/12/04 07:18:07;;;;;;;1999.90;999.90;;;0.90;45.10;;;;;;4987515;28;20235;-70
2023/12/04 07:20:33;;;;;;;1999.90;999.90;;;0.90;99.90;;;;;;4995030;28;20220;-70
2023/12/04 07:22:59;;;;;;;1999.90;999.90;;;1.00;99.90;;;;;;4995215;28;20166;-70
2023/12/04 07:25:25;;;;;;;1999.90;999.90;;;1.00;99.90;;;;;;4995348;28;20584;-70
2023/12/04 07:27:51;;;;;;;1999.90;999.90;;;1.00;1.00;;;;;;4994495;28;20166;-70
2023/12/04 07:30:17;;;;;;;1999.90;999.90;;;0.90;99.90;;;;;;4995123;28;20236;-70
2023/12/04 07:32:42;;;;;;;1999.90;999.90;;;1.00;99.90;;;;;;4994970;28;20242;-69
2023/12/04 07:35:08;;;;;;;1999.90;999.90;;;1.00;21.40;;;;;;4994978;28;20178;-69
2023/12/04 07:37:34;;;;;;;1999.90;999.90;;;0.90;77.40;;;;;;4994959;28;20177;-70
2023/12/04 07:40:00;;;;;;;1999.90;999.90;;;1.00;99.90;;;;;;4994778;28;20829;-70
2023/12/04 07:42:25;;;;;;;1999.90;999.90;;;1.00;99.90;;;;;;4994898;28;20170;-70
2023/12/04 07:44:51;;;;;;;1999.90;999.90;;;1.00;99.90;;;;;;4983299;28;20415;-70
2023/12/04 07:47:16;;;;;;;1999.90;999.90;;;1.00;99.90;;;;;;4994393;28;20650;-70
2023/12/04 07:49:44;;;;;;;1999.90;999.90;;;1.00;99.90;;;;;;4993922;28;20276;-70
2023/12/04 07:52:11;;;;;;;1999.90;999.90;;;0.90;99.90;;;;;;4987668;28;20694;-70
2023/12/04 07:54:37;;;;;;;1999.90;999.90;;;1.00;99.90;;;;;;4993682;28;20247;-70
2023/12/04 07:57:03;;;;;;;1999.90;999.90;;;1.00;20.90;;;;;;4994527;28;20714;-70
2023/12/04 07:59:29;;;;;;;1999.90;999.90;;;1.10;15.10;;;;;;4994310;28;20838;-70
2023/12/04 08:01:54;;;;;;;1999.90;999.90;;;1.10;1.00;;;;;;4994359;28;20178;-70
2023/12/04 08:04:20;;;;;;;1999.90;999.90;;;1.10;1.00;;;;;;4994360;28;20305;-70
2023/12/04 08:06:45;;;;;;;1999.90;999.90;;;1.10;1.00;;;;;;4994242;28;20181;-70
2023/12/04 08:09:11;;;;;;;1999.90;999.90;;;1.10;1.00;;;;;;4994362;28;20213;-70
2023/12/04 08:11:36;;;;;;;1999.90;999.90;;;1.10;1.00;;;;;;4994289;28;20161;-70
2023/12/04 08:14:03;;;;;;;1999.90;999.90;;;1.10;1.00;;;;;;4994322;28;20733;-70
2023/12/04 08:16:29;;;;;;;1999.90;999.90;;;1.00;44.50;;;;;;4994225;28;20253;-70
2023/12/04 08:18:55;;;;;;;1999.90;999.90;;;1.00;1.00;;;;;;4993899;28;20198;-70
2023/12/04 08:21:21;;;;;;;1999.90;999.90;;;1.10;63.40;;;;;;4993960;28;20208;-70
2023/12/04 08:23:46;;;;;;;1999.90;999.90;;;1.20;99.90;;;;;;4994138;28;20170;-70
2023/12/04 08:26:12;;;;;;;1999.90;999.90;;;1.20;99.90;;;;;;4994215;28;20166;-70
2023/12/04 08:28:41;;;;;;;1999.90;999.90;;;1.20;5.60;;;;;;4993759;28;20229;-70
2023/12/04 08:31:08;;;;;;;1999.90;999.90;;;1.30;1.00;;;;;;4993868;28;20204;-70
2023/12/04 08:33:34;;;;;;;1999.90;999.90;;;1.40;1.00;;;;;;4993835;28;20181;-70
2023/12/04 08:36:00;;;;;;;1999.90;999.90;;;1.50;1.00;;;;;;4994066;28;20705;-70
2023/12/04 08:38:26;;;;;;;1999.90;999.90;;;1.60;1.00;;;;;;4993542;28;20305;-70
2023/12/04 08:40:51;;;;;;;1999.90;999.90;;;1.60;99.90;;;;;;4993017;28;20296;-70
2023/12/04 08:43:18;;;;;;;1999.90;999.90;;;1.70;99.90;;;;;;4993646;28;20178;-70
2023/12/04 08:45:45;;;;;;;1999.90;999.90;;;1.70;99.90;;;;;;4993674;28;20169;-70
2023/12/04 08:48:11;;;;;;;1999.90;999.90;;;1.70;99.90;;;;;;4993195;28;20217;-70
2023/12/04 08:50:39;;;;;;;1999.90;999.90;;;1.80;99.90;;;;;;4993485;28;20551;-70
2023/12/04 08:53:05;;;;;;;1999.90;999.90;;;1.90;32.70;;;;;;4990711;28;20174;-70
2023/12/04 08:55:31;;;;;;;1999.90;999.90;;;1.90;15.30;;;;;;4993364;28;20227;-70
2023/12/04 08:57:57;;;;;;;1999.90;999.90;;;2.00;99.90;;;;;;4992892;28;20697;-70
2023/12/04 09:00:22;;;;;;;1999.90;999.90;;;1.90;1.00;;;;;;4993238;28;20455;-70
2023/12/04 09:02:48;;;;;;;1999.90;999.90;;;2.00;1.00;;;;;;4973997;28;20177;-70
2023/12/04 09:05:14;;;;;;;1999.90;999.90;;;2.00;1.00;;;;;;4973982;28;20163;-70
2023/12/04 09:07:40;;;;;;;1999.90;999.90;;;2.10;1.00;;;;;;4973806;28;20401;-70
2023/12/04 09:10:06;;;;;;;1999.90;999.90;;;2.20;1.00;;;;;;4992685;28;20840;-70
2023/12/04 09:12:31;;;;;;;1999.90;999.90;;;2.20;1.00;;;;;;4989478;28;20201;-70
2023/12/04 09:14:57;;;;;;;1999.90;999.90;;;2.20;1.00;;;;;;4989234;28;20648;-70
2023/12/04 09:17:23;;;;;;;1999.90;999.90;;;2.20;1.00;;;;;;4992639;28;20641;-70
2023/12/04 09:19:48;;;;;;;1999.90;999.90;;;2.10;1.00;;;;;;4992730;28;20197;-70
2023/12/04 09:22:14;;;;;;;1999.90;999.90;;;2.10;1.00;;;;;;4992894;28;20170;-70
2023/12/04 09:24:39;;;;;;;1999.90;999.90;;;2.10;1.00;;;;;;4993056;28;20665;-70
2023/12/04 09:27:06;;;;;;;1999.90;999.90;;;2.00;1.00;;;;;;4992654;28;20189;-70
2023/12/04 09:29:33;;;;;;;1999.90;999.90;;;2.00;1.00;;;;;;4992661;28;20277;-70
2023/12/04 09:31:59;;;;;;;1999.90;999.90;;;2.00;1.00;;;;;;4993040;28;20181;-70
2023/12/04 09:34:25;;;;;;;1999.90;999.90;;;2.00;1.00;;;;;;4992904;28;20584;-70
2023/12/04 09:36:50;;;;;;;1999.90;999.90;;;2.10;1.00;;;;;;4992614;28;20169;-70
2023/12/04 09:39:16;;;;;;;1999.90;999.90;;;2.30;1.00;;;;;;4992666;28;20251;-70
2023/12/04 09:41:43;;;;;;;1999.90;999.90;;;2.40;1.00;;;;;;4992706;28;20185;-70
2023/12/04 09:44:09;;;;;;;1999.90;999.90;;;2.40;99.90;;;;;;4992613;28;20169;-70
2023/12/04 09:46:35;;;;;;;1999.90;999.90;;;2.40;99.90;;;;;;4992331;28;20272;-70
2023/12/04 09:49:02;;;;;;;1999.90;999.90;;;2.50;99.90;;;;;;4992289;28;20181;-70
2023/12/04 09:51:28;;;;;;;1999.90;999.90;;;2.50;99.90;;;;;;4991081;28;20803;-70
2023/12/04 09:53:57;;;;;;;1999.90;999.90;;;2.60;99.90;;;;;;4992464;28;20193;-70
2023/12/04 09:56:23;;;;;;;1999.90;999.90;;;2.60;99.90;;;;;;4992452;28;20257;-70
2023/12/04 09:58:54;;;;;;;1999.90;999.90;;;2.60;99.90;;;;;;4992023;28;20225;-70
2023/12/04 10:01:21;;;;;;;1999.90;999.90;;;2.70;99.90;;;;;;4990222;28;20205;-70
2023/12/04 10:03:47;;;;;;;1999.90;999.90;;;2.70;99.90;;;;;;4992514;28;20685;-70
2023/12/04 10:06:17;;;;;;;1999.90;999.90;;;2.80;99.90;;;;;;4992370;28;20256;-70
2023/12/04 10:08:44;;;;;;;1999.90;999.90;;;2.70;99.90;;;;;;4988366;28;20195;-70
2023/12/04 10:11:12;;;;;;;1999.90;999.90;;;2.80;99.90;;;;;;4984295;28;20174;-70
2023/12/04 10:13:40;;;;;;;1999.90;999.90;;;2.70;99.90;;;;;;4986808;28;20185;-70
2023/12/04 10:16:06;;;;;;;1999.90;999.90;;;2.70;99.90;;;;;;4987685;28;20233;-70
2023/12/04 10:18:32;;;;;;;1999.90;999.90;;;2.70;99.90;;;;;;4987534;28;20217;-70
2023/12/04 10:20:58;;;;;;;1999.90;999.90;;;2.70;99.90;;;;;;4988377;28;20475;-70
2023/12/04 10:23:42;;;;;;;1999.90;999.90;;;2.70;99.90;;;;;;4988326;28;20181;-69
2023/12/04 10:26:08;;;;;;;1999.90;999.90;;;2.60;99.90;;;;;;4988989;28;20190;-69
2023/12/04 10:28:35;;;;;;;1999.90;999.90;;;2.60;99.90;;;;;;4987832;28;20221;-69
2023/12/04 10:31:01;;;;;;;1999.90;999.90;;;2.60;99.90;;;;;;4989081;28;20190;-69
2023/12/04 10:33:29;;;;;;;1999.90;999.90;;;2.60;99.90;;;;;;4988646;28;20805;-69
2023/12/04 10:35:55;;;;;;;1999.90;999.90;;;2.60;99.90;;;;;;4979757;28;20523;-69
2023/12/04 10:38:21;;;;;;;1999.90;999.90;;;2.70;99.90;;;;;;4987914;28;20261;-69
2023/12/04 10:40:47;;;;;;;1999.90;999.90;;;2.70;99.90;;;;;;4988132;28;20652;-69
2023/12/04 10:43:16;;;;;;;1999.90;999.90;;;2.70;99.90;;;;;;4987538;28;20196;-70
2023/12/04 10:45:43;;;;;;;1999.90;999.90;;;2.70;99.90;;;;;;4988415;28;20182;-69
2023/12/04 10:48:10;;;;;;;1999.90;999.90;;;2.80;99.90;;;;;;4987960;28;20202;-70
2023/12/04 10:50:40;;;;;;;1999.90;999.90;;;2.80;99.90;;;;;;4987895;28;20431;-70
2023/12/04 10:53:12;;;;;;;1999.90;999.90;;;2.70;99.90;;;;;;4987673;28;20207;-68
2023/12/04 10:55:39;;;;;;;1999.90;999.90;;;2.70;99.90;;;;;;4982764;28;20210;-70
2023/12/04 10:58:09;;;;;;;1999.90;999.90;;;2.60;99.90;;;;;;4987307;28;20421;-69
2023/12/04 11:00:39;;;;;;;1999.90;999.90;;;2.50;1.00;;;;;;4986925;28;20255;-69
2023/12/04 11:03:08;;;;;;;1999.90;999.90;;;2.50;1.00;;;;;;4987637;28;20269;-69
2023/12/04 11:05:38;;;;;;;1999.90;999.90;;;2.50;1.00;;;;;;4991399;28;20565;-70
2023/12/04 11:08:16;;;;;;;1999.90;999.90;;;2.40;5.40;;;;;;4991429;28;20201;-69
2023/12/04 11:10:58;;;;;;;1999.90;999.90;;;2.40;99.90;;;;;;4991623;28;20224;-72
2023/12/04 11:13:31;;;;;;;1999.90;999.90;;;2.30;99.90;;;;;;4991201;28;20272;-71
2023/12/04 11:16:00;;;;;;;1999.90;999.90;;;2.30;1.00;;;;;;4991454;28;20668;-69
2023/12/04 11:18:30;;;;;;;1999.90;999.90;;;2.30;1.00;;;;;;4990947;28;20999;-71
2023/12/04 11:21:03;;;;;;;1999.90;999.90;;;2.20;1.00;;;;;;4990612;28;20205;-69
2023/12/04 11:23:31;;;;;;;1999.90;999.90;;;2.20;99.90;;;;;;4990596;28;20193;-69
2023/12/04 11:25:57;;;;;;;1999.90;999.90;;;2.20;99.90;;;;;;4990838;28;20548;-68
2023/12/04 11:28:24;;;;;;;1999.90;999.90;;;2.10;1.00;;;;;;4990739;28;20212;-68
2023/12/04 11:30:50;;;;;;;1999.90;999.90;;;2.10;1.00;;;;;;4990588;28;20797;-69
2023/12/04 11:33:16;;;;;;;1999.90;999.90;;;2.10;99.90;;;;;;4990735;28;20209;-68
2023/12/04 11:35:41;;;;;;;1999.90;999.90;;;2.10;99.90;;;;;;4991282;28;20425;-71
2023/12/04 11:38:09;;;;;;;1999.90;999.90;;;2.00;1.00;;;;;;4990138;28;20693;-70
2023/12/04 11:40:36;;;;;;;1999.90;999.90;;;2.00;64.10;;;;;;4990387;28;20213;-70
2023/12/04 11:43:22;;;;;;;1999.90;999.90;;;2.00;99.90;;;;;;4991005;28;20180;-70
2023/12/04 11:45:49;;;;;;;1999.90;999.90;;;2.00;1.00;;;;;;4990408;28;20174;-70
2023/12/04 11:48:15;;;;;;;1999.90;999.90;;;1.90;1.00;;;;;;4990785;28;20272;-70
2023/12/04 11:50:43;;;;;;;1999.90;999.90;;;1.90;99.90;;;;;;4989883;28;20177;-70
2023/12/04 11:53:12;;;;;;;1999.90;999.90;;;1.90;1.00;;;;;;4989984;28;20186;-70
2023/12/04 11:55:43;;;;;;;1999.90;999.90;;;1.90;70.50;;;;;;4990535;28;20182;-70
2023/12/04 11:58:11;;;;;;;1999.90;999.90;;;1.90;99.90;;;;;;4990294;28;20842;-70
2023/12/04 12:00:37;;;;;;;1999.90;999.90;;;1.90;1.00;;;;;;4989901;28;20689;-70
2023/12/04 12:03:08;;;;;;;1999.90;999.90;;;1.90;1.00;;;;;;4989768;28;20186;-70
2023/12/04 12:05:35;;;;;;;1999.90;999.90;;;1.90;54.30;;;;;;4990133;28;20189;-71